sensor_id;sensor_type;location;lat;lon;timestamp;temperature;humidity
17918;DHT22;9084;50.956;3.106;2023-09-19T00:00:44;15.00;99.90
17918;DHT22;9084;50.956;3.106;2023-09-19T00:03:12;15.00;99.90
17918;DHT22;9084;50.956;3.106;2023-09-19T00:05:38;15.00;99.90
17918;DHT22;9084;50.956;3.106;2023-09-19T00:08:07;15.00;99.90
17918;DHT22;9084;50.956;3.106;2023-09-19T00:10:36;15.00;99.90
17918;DHT22;9084;50.956;3.106;2023-09-19T00:13:05;15.00;99.90
17918;DHT22;9084;50.956;3.106;2023-09-19T00:15:38;15.00;99.90
17918;DHT22;9084;50.956;3.106;2023-09-19T00:18:04;15.00;99.90
17918;DHT22;9084;50.956;3.106;2023-09-19T00:20:38;15.00;99.90
17918;DHT22;9084;50.956;3.106;2023-09-19T00:23:05;15.00;99.90
17918;DHT22;9084;50.956;3.106;2023-09-19T00:25:33;15.00;99.90
17918;DHT22;9084;50.956;3.106;2023-09-19T00:28:01;15.10;99.90
17918;DHT22;9084;50.956;3.106;2023-09-19T00:30:26;15.10;99.90
17918;DHT22;9084;50.956;3.106;2023-09-19T00:32:52;15.10;99.90
17918;DHT22;9084;50.956;3.106;2023-09-19T00:35:21;15.20;99.90
17918;DHT22;9084;50.956;3.106;2023-09-19T00:37:50;15.20;99.90
17918;DHT22;9084;50.956;3.106;2023-09-19T00:40:16;15.30;99.90
17918;DHT22;9084;50.956;3.106;2023-09-19T00:42:43;15.30;99.90
17918;DHT22;9084;50.956;3.106;2023-09-19T00:45:10;15.30;99.90
17918;DHT22;9084;50.956;3.106;2023-09-19T00:47:44;15.20;99.90
17918;DHT22;9084;50.956;3.106;2023-09-19T00:50:15;15.20;99.90
17918;DHT22;9084;50.956;3.106;2023-09-19T00:52:43;15.20;99.90
17918;DHT22;9084;50.956;3.106;2023-09-19T00:55:12;15.20;99.90
17918;DHT22;9084;50.956;3.106;2023-09-19T00:57:39;15.10;99.90
17918;DHT22;9084;50.956;3.106;2023-09-19T01:00:08;15.10;99.90
17918;DHT22;9084;50.956;3.106;2023-09-19T01:02:42;15.10;99.90
17918;DHT22;9084;50.956;3.106;2023-09-19T01:05:09;15.10;99.90
17918;DHT22;9084;50.956;3.106;2023-09-19T01:07:35;15.10;99.90
17918;DHT22;9084;50.956;3.106;2023-09-19T01:10:05;15.10;99.90
17918;DHT22;9084;50.956;3.106;2023-09-19T01:29:44;15.00;99.90
17918;DHT22;9084;50.956;3.106;2023-09-19T01:32:16;15.00;99.90
17918;DHT22;9084;50.956;3.106;2023-09-19T01:34:55;14.90;99.90
17918;DHT22;9084;50.956;3.106;2023-09-19T01:37:29;14.90;99.90
17918;DHT22;9084;50.956;3.106;2023-09-19T01:40:00;14.90;99.90
17918;DHT22;9084;50.956;3.106;2023-09-19T01:42:48;14.90;99.90
17918;DHT22;9084;50.956;3.106;2023-09-19T01:47:53;14.90;99.90
17918;DHT22;9084;50.956;3.106;2023-09-19T01:53:27;14.90;99.90
17918;DHT22;9084;50.956;3.106;2023-09-19T01:55:59;15.00;99.90
17918;DHT22;9084;50.956;3.106;2023-09-19T01:58:45;14.90;99.90
17918;DHT22;9084;50.956;3.106;2023-09-19T02:01:18;14.90;99.90
17918;DHT22;9084;50.956;3.106;2023-09-19T02:03:44;15.00;99.90
17918;DHT22;9084;50.956;3.106;2023-09-19T02:06:17;15.00;99.90
17918;DHT22;9084;50.956;3.106;2023-09-19T02:08:45;15.10;99.90
17918;DHT22;9084;50.956;3.106;2023-09-19T02:11:13;15.20;99.90
17918;DHT22;9084;50.956;3.106;2023-09-19T02:13:39;15.20;99.90
17918;DHT22;9084;50.956;3.106;2023-09-19T02:16:06;15.30;99.90
17918;DHT22;9084;50.956;3.106;2023-09-19T02:18:32;15.30;99.90
17918;DHT22;9084;50.956;3.106;2023-09-19T02:21:01;15.30;99.90
17918;DHT22;9084;50.956;3.106;2023-09-19T02:23:27;15.30;99.90
17918;DHT22;9084;50.956;3.106;2023-09-19T02:25:59;15.30;99.90
17918;DHT22;9084;50.956;3.106;2023-09-19T02:28:29;15.30;99.90
17918;DHT22;9084;50.956;3.106;2023-09-19T02:31:01;15.30;99.90
17918;DHT22;9084;50.956;3.106;2023-09-19T02:33:29;15.30;99.90
17918;DHT22;9084;50.956;3.106;2023-09-19T02:36:00;15.30;99.90
17918;DHT22;9084;50.956;3.106;2023-09-19T02:38:29;15.30;99.90
17918;DHT22;9084;50.956;3.106;2023-09-19T02:40:57;15.30;99.90
17918;DHT22;9084;50.956;3.106;2023-09-19T02:43:27;15.30;99.90
17918;DHT22;9084;50.956;3.106;2023-09-19T02:45:53;15.30;99.90
17918;DHT22;9084;50.956;3.106;2023-09-19T02:48:19;15.30;99.90
17918;DHT22;9084;50.956;3.106;2023-09-19T02:50:45;15.40;99.90
17918;DHT22;9084;50.956;3.106;2023-09-19T02:53:14;15.40;99.90
17918;DHT22;9084;50.956;3.106;2023-09-19T02:55:39;15.40;99.90
17918;DHT22;9084;50.956;3.106;2023-09-19T02:58:08;15.30;99.90
17918;DHT22;9084;50.956;3.106;2023-09-19T03:00:35;15.30;99.90
17918;DHT22;9084;50.956;3.106;2023-09-19T03:03:05;15.30;99.90
17918;DHT22;9084;50.956;3.106;2023-09-19T03:05:36;15.20;99.90
17918;DHT22;9084;50.956;3.106;2023-09-19T03:08:07;15.20;99.90
17918;DHT22;9084;50.956;3.106;2023-09-19T03:10:33;15.10;99.90
17918;DHT22;9084;50.956;3.106;2023-09-19T03:12:58;15.10;99.90
17918;DHT22;9084;50.956;3.106;2023-09-19T03:15:25;15.00;99.90
17918;DHT22;9084;50.956;3.106;2023-09-19T03:17:51;15.00;99.90
17918;DHT22;9084;50.956;3.106;2023-09-19T03:20:19;14.90;99.90
17918;DHT22;9084;50.956;3.106;2023-09-19T03:22:48;14.90;99.90
17918;DHT22;9084;50.956;3.106;2023-09-19T03:25:16;14.80;99.90
17918;DHT22;9084;50.956;3.106;2023-09-19T03:27:44;14.80;99.90
17918;DHT22;9084;50.956;3.106;2023-09-19T03:30:10;14.80;99.90
17918;DHT22;9084;50.956;3.106;2023-09-19T03:32:45;14.70;99.90
17918;DHT22;9084;50.956;3.106;2023-09-19T03:35:12;14.70;99.90
17918;DHT22;9084;50.956;3.106;2023-09-19T03:37:40;14.70;99.90
17918;DHT22;9084;50.956;3.106;2023-09-19T03:40:10;14.70;99.90
17918;DHT22;9084;50.956;3.106;2023-09-19T03:42:39;14.60;99.90
17918;DHT22;9084;50.956;3.106;2023-09-19T03:45:09;14.60;99.90
17918;DHT22;9084;50.956;3.106;2023-09-19T03:47:38;14.60;99.90
17918;DHT22;9084;50.956;3.106;2023-09-19T03:50:05;14.50;99.90
17918;DHT22;9084;50.956;3.106;2023-09-19T03:52:34;14.50;99.90
17918;DHT22;9084;50.956;3.106;2023-09-19T03:55:01;14.50;99.90
17918;DHT22;9084;50.956;3.106;2023-09-19T03:57:32;14.50;99.90
17918;DHT22;9084;50.956;3.106;2023-09-19T04:00:02;14.40;99.90
17918;DHT22;9084;50.956;3.106;2023-09-19T04:02:28;14.40;99.90
17918;DHT22;9084;50.956;3.106;2023-09-19T04:04:58;14.40;99.90
17918;DHT22;9084;50.956;3.106;2023-09-19T04:07:24;14.40;99.90
17918;DHT22;9084;50.956;3.106;2023-09-19T04:09:51;14.30;99.90
17918;DHT22;9084;50.956;3.106;2023-09-19T04:12:19;14.30;99.90
17918;DHT22;9084;50.956;3.106;2023-09-19T04:14:50;14.30;99.90
17918;DHT22;9084;50.956;3.106;2023-09-19T04:17:15;14.30;99.90
17918;DHT22;9084;50.956;3.106;2023-09-19T04:19:44;14.30;99.90
17918;DHT22;9084;50.956;3.106;2023-09-19T04:22:11;14.30;99.90
17918;DHT22;9084;50.956;3.106;2023-09-19T04:24:39;14.30;99.90
17918;DHT22;9084;50.956;3.106;2023-09-19T04:27:05;14.30;99.90
17918;DHT22;9084;50.956;3.106;2023-09-19T04:29:35;14.30;99.90
17918;DHT22;9084;50.956;3.106;2023-09-19T04:32:00;14.30;99.90
17918;DHT22;9084;50.956;3.106;2023-09-19T04:34:26;14.30;99.90
17918;DHT22;9084;50.956;3.106;2023-09-19T04:36:54;14.30;99.90
17918;DHT22;9084;50.956;3.106;2023-09-19T04:39:21;14.30;99.90
17918;DHT22;9084;50.956;3.106;2023-09-19T04:41:51;14.30;99.90
17918;DHT22;9084;50.956;3.106;2023-09-19T04:44:18;14.30;99.90
17918;DHT22;9084;50.956;3.106;2023-09-19T04:46:44;14.20;99.90
17918;DHT22;9084;50.956;3.106;2023-09-19T04:49:11;14.30;99.90
17918;DHT22;9084;50.956;3.106;2023-09-19T04:51:38;14.30;99.90
17918;DHT22;9084;50.956;3.106;2023-09-19T04:54:04;14.30;99.90
17918;DHT22;9084;50.956;3.106;2023-09-19T04:56:29;14.30;99.90
17918;DHT22;9084;50.956;3.106;2023-09-19T04:58:56;14.30;99.90
17918;DHT22;9084;50.956;3.106;2023-09-19T05:01:24;14.30;99.90
17918;DHT22;9084;50.956;3.106;2023-09-19T05:03:50;14.20;99.90
17918;DHT22;9084;50.956;3.106;2023-09-19T05:06:19;14.30;99.90
17918;DHT22;9084;50.956;3.106;2023-09-19T05:08:51;14.30;99.90
17918;DHT22;9084;50.956;3.106;2023-09-19T05:11:20;14.30;99.90
17918;DHT22;9084;50.956;3.106;2023-09-19T05:13:52;14.30;99.90
17918;DHT22;9084;50.956;3.106;2023-09-19T05:16:18;14.30;99.90
17918;DHT22;9084;50.956;3.106;2023-09-19T05:18:47;14.40;99.90
17918;DHT22;9084;50.956;3.106;2023-09-19T05:21:13;14.40;99.90
17918;DHT22;9084;50.956;3.106;2023-09-19T05:23:38;14.50;99.90
17918;DHT22;9084;50.956;3.106;2023-09-19T05:26:06;14.50;99.90
17918;DHT22;9084;50.956;3.106;2023-09-19T05:28:34;14.50;99.90
17918;DHT22;9084;50.956;3.106;2023-09-19T05:31:05;14.60;99.90
17918;DHT22;9084;50.956;3.106;2023-09-19T05:33:32;14.60;99.90
17918;DHT22;9084;50.956;3.106;2023-09-19T05:35:58;14.60;99.90
17918;DHT22;9084;50.956;3.106;2023-09-19T05:38:24;14.70;99.90
17918;DHT22;9084;50.956;3.106;2023-09-19T05:40:55;14.70;99.90
17918;DHT22;9084;50.956;3.106;2023-09-19T05:43:20;14.70;99.90
17918;DHT22;9084;50.956;3.106;2023-09-19T05:45:48;14.80;99.90
17918;DHT22;9084;50.956;3.106;2023-09-19T05:48:17;14.90;99.90
17918;DHT22;9084;50.956;3.106;2023-09-19T05:50:43;14.80;99.90
17918;DHT22;9084;50.956;3.106;2023-09-19T05:53:10;14.90;99.90
17918;DHT22;9084;50.956;3.106;2023-09-19T05:55:42;14.90;99.90
17918;DHT22;9084;50.956;3.106;2023-09-19T05:58:08;14.90;99.90
17918;DHT22;9084;50.956;3.106;2023-09-19T06:00:39;14.90;99.90
17918;DHT22;9084;50.956;3.106;2023-09-19T06:03:07;14.90;99.90
17918;DHT22;9084;50.956;3.106;2023-09-19T06:05:35;14.90;99.90
17918;DHT22;9084;50.956;3.106;2023-09-19T06:08:01;14.80;99.90
17918;DHT22;9084;50.956;3.106;2023-09-19T06:10:33;14.80;99.90
17918;DHT22;9084;50.956;3.106;2023-09-19T06:13:01;14.80;99.90
17918;DHT22;9084;50.956;3.106;2023-09-19T06:15:30;14.80;99.90
17918;DHT22;9084;50.956;3.106;2023-09-19T06:17:58;14.90;99.90
17918;DHT22;9084;50.956;3.106;2023-09-19T06:20:27;14.90;99.90
17918;DHT22;9084;50.956;3.106;2023-09-19T06:22:54;14.90;99.90
17918;DHT22;9084;50.956;3.106;2023-09-19T06:25:20;14.90;99.90
17918;DHT22;9084;50.956;3.106;2023-09-19T06:27:48;15.00;99.90
17918;DHT22;9084;50.956;3.106;2023-09-19T06:30:14;15.00;99.90
17918;DHT22;9084;50.956;3.106;2023-09-19T06:32:43;15.00;99.90
17918;DHT22;9084;50.956;3.106;2023-09-19T06:35:13;15.10;99.90
17918;DHT22;9084;50.956;3.106;2023-09-19T06:37:39;15.10;99.90
17918;DHT22;9084;50.956;3.106;2023-09-19T06:40:09;15.10;99.90
17918;DHT22;9084;50.956;3.106;2023-09-19T06:45:11;15.20;99.90
17918;DHT22;9084;50.956;3.106;2023-09-19T06:47:39;15.30;99.90
17918;DHT22;9084;50.956;3.106;2023-09-19T06:50:05;15.40;99.90
17918;DHT22;9084;50.956;3.106;2023-09-19T06:52:34;15.40;99.90
17918;DHT22;9084;50.956;3.106;2023-09-19T06:55:01;15.40;99.90
17918;DHT22;9084;50.956;3.106;2023-09-19T06:57:28;15.50;99.90
17918;DHT22;9084;50.956;3.106;2023-09-19T06:59:57;15.60;99.90
17918;DHT22;9084;50.956;3.106;2023-09-19T07:02:23;15.60;99.90
17918;DHT22;9084;50.956;3.106;2023-09-19T07:04:50;15.70;99.90
17918;DHT22;9084;50.956;3.106;2023-09-19T07:07:16;15.80;99.90
17918;DHT22;9084;50.956;3.106;2023-09-19T07:09:42;15.80;99.90
17918;DHT22;9084;50.956;3.106;2023-09-19T07:12:08;15.80;99.90
17918;DHT22;9084;50.956;3.106;2023-09-19T07:14:36;15.90;99.90
17918;DHT22;9084;50.956;3.106;2023-09-19T07:17:01;15.90;99.90
17918;DHT22;9084;50.956;3.106;2023-09-19T07:19:29;16.00;99.90
17918;DHT22;9084;50.956;3.106;2023-09-19T07:21:56;16.00;99.90
17918;DHT22;9084;50.956;3.106;2023-09-19T07:24:27;16.10;99.90
17918;DHT22;9084;50.956;3.106;2023-09-19T07:26:54;16.10;99.90
17918;DHT22;9084;50.956;3.106;2023-09-19T07:29:20;16.20;99.90
17918;DHT22;9084;50.956;3.106;2023-09-19T07:31:45;16.20;99.90
17918;DHT22;9084;50.956;3.106;2023-09-19T07:34:15;16.30;99.90
17918;DHT22;9084;50.956;3.106;2023-09-19T07:36:40;16.40;99.90
17918;DHT22;9084;50.956;3.106;2023-09-19T07:39:09;16.40;99.90
17918;DHT22;9084;50.956;3.106;2023-09-19T07:41:37;16.40;99.90
17918;DHT22;9084;50.956;3.106;2023-09-19T07:44:03;16.50;99.90
17918;DHT22;9084;50.956;3.106;2023-09-19T07:46:29;16.50;99.90
17918;DHT22;9084;50.956;3.106;2023-09-19T07:48:56;16.50;99.90
17918;DHT22;9084;50.956;3.106;2023-09-19T07:51:22;16.60;99.90
17918;DHT22;9084;50.956;3.106;2023-09-19T07:53:48;16.60;99.90
17918;DHT22;9084;50.956;3.106;2023-09-19T07:56:16;16.60;99.90
17918;DHT22;9084;50.956;3.106;2023-09-19T07:58:43;16.70;99.90
17918;DHT22;9084;50.956;3.106;2023-09-19T08:01:10;16.70;99.90
17918;DHT22;9084;50.956;3.106;2023-09-19T08:03:36;16.80;99.90
17918;DHT22;9084;50.956;3.106;2023-09-19T08:06:12;16.80;99.90
17918;DHT22;9084;50.956;3.106;2023-09-19T08:08:41;16.90;99.90
17918;DHT22;9084;50.956;3.106;2023-09-19T08:11:07;16.90;99.90
17918;DHT22;9084;50.956;3.106;2023-09-19T08:13:46;17.00;99.90
17918;DHT22;9084;50.956;3.106;2023-09-19T08:16:14;17.00;99.90
17918;DHT22;9084;50.956;3.106;2023-09-19T08:18:41;17.10;99.90
17918;DHT22;9084;50.956;3.106;2023-09-19T08:21:07;17.20;99.90
17918;DHT22;9084;50.956;3.106;2023-09-19T08:23:39;17.30;99.90
17918;DHT22;9084;50.956;3.106;2023-09-19T08:26:05;17.40;99.90
17918;DHT22;9084;50.956;3.106;2023-09-19T08:28:34;17.50;99.90
17918;DHT22;9084;50.956;3.106;2023-09-19T08:31:04;17.60;99.90
17918;DHT22;9084;50.956;3.106;2023-09-19T08:33:34;17.60;99.90
17918;DHT22;9084;50.956;3.106;2023-09-19T08:36:04;17.70;99.90
17918;DHT22;9084;50.956;3.106;2023-09-19T08:38:34;17.80;99.90
17918;DHT22;9084;50.956;3.106;2023-09-19T08:41:07;17.90;99.90
17918;DHT22;9084;50.956;3.106;2023-09-19T08:43:35;17.90;99.90
17918;DHT22;9084;50.956;3.106;2023-09-19T08:46:10;18.00;99.90
17918;DHT22;9084;50.956;3.106;2023-09-19T08:51:51;18.00;99.90
17918;DHT22;9084;50.956;3.106;2023-09-19T08:56:48;17.90;99.90
17918;DHT22;9084;50.956;3.106;2023-09-19T08:59:15;17.90;99.90
17918;DHT22;9084;50.956;3.106;2023-09-19T09:01:44;18.00;99.90
17918;DHT22;9084;50.956;3.106;2023-09-19T09:04:11;18.00;99.90
17918;DHT22;9084;50.956;3.106;2023-09-19T09:06:38;18.00;99.90
17918;DHT22;9084;50.956;3.106;2023-09-19T09:09:06;17.80;99.90
17918;DHT22;9084;50.956;3.106;2023-09-19T09:11:34;17.70;99.90
17918;DHT22;9084;50.956;3.106;2023-09-19T09:14:00;17.70;99.90
17918;DHT22;9084;50.956;3.106;2023-09-19T09:16:26;17.70;99.90
17918;DHT22;9084;50.956;3.106;2023-09-19T09:18:52;17.80;99.90
17918;DHT22;9084;50.956;3.106;2023-09-19T09:21:29;17.80;99.90
17918;DHT22;9084;50.956;3.106;2023-09-19T09:23:55;18.00;99.90
17918;DHT22;9084;50.956;3.106;2023-09-19T09:26:41;18.20;99.90
17918;DHT22;9084;50.956;3.106;2023-09-19T09:29:08;18.40;99.90
17918;DHT22;9084;50.956;3.106;2023-09-19T09:31:33;18.50;99.90
17918;DHT22;9084;50.956;3.106;2023-09-19T09:34:05;18.70;99.90
17918;DHT22;9084;50.956;3.106;2023-09-19T09:36:40;19.00;99.90
17918;DHT22;9084;50.956;3.106;2023-09-19T09:39:09;19.20;99.90
17918;DHT22;9084;50.956;3.106;2023-09-19T09:41:44;19.20;99.90
17918;DHT22;9084;50.956;3.106;2023-09-19T09:44:15;19.20;99.90
17918;DHT22;9084;50.956;3.106;2023-09-19T09:46:44;19.10;99.90
17918;DHT22;9084;50.956;3.106;2023-09-19T09:49:23;19.00;99.90
17918;DHT22;9084;50.956;3.106;2023-09-19T09:52:07;19.00;99.90
17918;DHT22;9084;50.956;3.106;2023-09-19T09:55:02;19.00;99.90
17918;DHT22;9084;50.956;3.106;2023-09-19T09:57:36;19.10;99.90
17918;DHT22;9084;50.956;3.106;2023-09-19T10:00:02;19.20;99.90
17918;DHT22;9084;50.956;3.106;2023-09-19T10:02:37;19.20;99.90
17918;DHT22;9084;50.956;3.106;2023-09-19T10:05:19;19.30;99.90
17918;DHT22;9084;50.956;3.106;2023-09-19T10:07:46;19.40;99.90
17918;DHT22;9084;50.956;3.106;2023-09-19T10:10:33;19.40;99.90
17918;DHT22;9084;50.956;3.106;2023-09-19T10:13:12;19.40;99.90
17918;DHT22;9084;50.956;3.106;2023-09-19T10:15:39;19.50;99.90
17918;DHT22;9084;50.956;3.106;2023-09-19T10:18:21;19.60;99.90
17918;DHT22;9084;50.956;3.106;2023-09-19T10:20:47;19.80;99.90
17918;DHT22;9084;50.956;3.106;2023-09-19T10:23:15;19.80;99.90
17918;DHT22;9084;50.956;3.106;2023-09-19T10:25:50;19.80;99.90
17918;DHT22;9084;50.956;3.106;2023-09-19T10:28:19;19.90;99.90
17918;DHT22;9084;50.956;3.106;2023-09-19T10:30:52;19.90;99.90
17918;DHT22;9084;50.956;3.106;2023-09-19T10:33:20;19.90;99.90
17918;DHT22;9084;50.956;3.106;2023-09-19T10:35:48;20.10;99.90
17918;DHT22;9084;50.956;3.106;2023-09-19T10:38:17;20.10;99.90
17918;DHT22;9084;50.956;3.106;2023-09-19T10:40:53;20.10;99.90
17918;DHT22;9084;50.956;3.106;2023-09-19T10:43:21;20.20;99.90
17918;DHT22;9084;50.956;3.106;2023-09-19T10:45:48;20.30;99.90
17918;DHT22;9084;50.956;3.106;2023-09-19T10:48:15;20.50;99.90
17918;DHT22;9084;50.956;3.106;2023-09-19T10:53:51;20.60;98.90
17918;DHT22;9084;50.956;3.106;2023-09-19T10:56:23;20.80;99.10
17918;DHT22;9084;50.956;3.106;2023-09-19T10:59:11;20.90;98.30
17918;DHT22;9084;50.956;3.106;2023-09-19T11:01:56;21.00;97.10
17918;DHT22;9084;50.956;3.106;2023-09-19T11:07:02;21.10;96.50
17918;DHT22;9084;50.956;3.106;2023-09-19T11:09:55;21.10;96.60
17918;DHT22;9084;50.956;3.106;2023-09-19T11:15:00;21.00;97.80
17918;DHT22;9084;50.956;3.106;2023-09-19T11:17:40;20.90;97.30
17918;DHT22;9084;50.956;3.106;2023-09-19T11:25:42;20.60;98.90
17918;DHT22;9084;50.956;3.106;2023-09-19T11:46:17;20.50;99.70
17918;DHT22;9084;50.956;3.106;2023-09-19T11:48:49;20.50;99.30
17918;DHT22;9084;50.956;3.106;2023-09-19T11:53:47;20.50;99.10
17918;DHT22;9084;50.956;3.106;2023-09-19T11:56:26;20.60;99.30
17918;DHT22;9084;50.956;3.106;2023-09-19T11:58:57;20.60;98.80
17918;DHT22;9084;50.956;3.106;2023-09-19T12:01:31;20.60;98.50
17918;DHT22;9084;50.956;3.106;2023-09-19T12:04:00;20.70;99.30
17918;DHT22;9084;50.956;3.106;2023-09-19T12:06:30;20.80;98.10
17918;DHT22;9084;50.956;3.106;2023-09-19T12:09:00;20.80;97.70
17918;DHT22;9084;50.956;3.106;2023-09-19T12:11:32;20.70;97.00
17918;DHT22;9084;50.956;3.106;2023-09-19T12:13:59;20.70;97.00
17918;DHT22;9084;50.956;3.106;2023-09-19T12:16:26;20.80;97.30
17918;DHT22;9084;50.956;3.106;2023-09-19T12:18:58;20.80;96.60
17918;DHT22;9084;50.956;3.106;2023-09-19T12:21:42;20.80;97.10
17918;DHT22;9084;50.956;3.106;2023-09-19T12:24:12;20.90;96.40
17918;DHT22;9084;50.956;3.106;2023-09-19T12:26:47;21.00;96.40
17918;DHT22;9084;50.956;3.106;2023-09-19T12:29:17;21.20;95.50
17918;DHT22;9084;50.956;3.106;2023-09-19T12:31:50;21.50;95.80
17918;DHT22;9084;50.956;3.106;2023-09-19T12:34:21;21.70;94.40
17918;DHT22;9084;50.956;3.106;2023-09-19T12:36:48;21.50;94.30
17918;DHT22;9084;50.956;3.106;2023-09-19T12:39:24;21.30;94.40
17918;DHT22;9084;50.956;3.106;2023-09-19T12:41:55;21.00;95.30
17918;DHT22;9084;50.956;3.106;2023-09-19T12:44:24;20.80;95.50
17918;DHT22;9084;50.956;3.106;2023-09-19T12:46:50;20.90;96.40
17918;DHT22;9084;50.956;3.106;2023-09-19T12:49:20;21.00;95.50
17918;DHT22;9084;50.956;3.106;2023-09-19T12:51:47;21.20;95.70
17918;DHT22;9084;50.956;3.106;2023-09-19T12:54:13;21.30;95.60
17918;DHT22;9084;50.956;3.106;2023-09-19T12:56:45;21.40;94.80
17918;DHT22;9084;50.956;3.106;2023-09-19T12:59:13;21.30;94.60
17918;DHT22;9084;50.956;3.106;2023-09-19T13:01:42;21.10;94.40
17918;DHT22;9084;50.956;3.106;2023-09-19T13:04:21;20.90;95.50
17918;DHT22;9084;50.956;3.106;2023-09-19T13:06:55;20.60;96.10
17918;DHT22;9084;50.956;3.106;2023-09-19T13:09:27;20.40;97.50
17918;DHT22;9084;50.956;3.106;2023-09-19T13:12:37;20.20;98.10
17918;DHT22;9084;50.956;3.106;2023-09-19T13:15:11;20.10;99.10
17918;DHT22;9084;50.956;3.106;2023-09-19T13:17:49;20.20;99.90
17918;DHT22;9084;50.956;3.106;2023-09-19T13:20:29;20.40;99.70
17918;DHT22;9084;50.956;3.106;2023-09-19T13:22:58;20.50;99.00
17918;DHT22;9084;50.956;3.106;2023-09-19T13:25:25;20.60;97.60
17918;DHT22;9084;50.956;3.106;2023-09-19T13:27:54;20.60;98.10
17918;DHT22;9084;50.956;3.106;2023-09-19T13:30:24;20.50;98.90
17918;DHT22;9084;50.956;3.106;2023-09-19T13:33:10;20.30;99.30
17918;DHT22;9084;50.956;3.106;2023-09-19T13:35:44;20.10;99.80
17918;DHT22;9084;50.956;3.106;2023-09-19T13:38:10;20.00;99.60
17918;DHT22;9084;50.956;3.106;2023-09-19T13:40:38;19.90;99.90
17918;DHT22;9084;50.956;3.106;2023-09-19T13:43:09;19.80;99.90
17918;DHT22;9084;50.956;3.106;2023-09-19T13:45:36;19.70;99.90
17918;DHT22;9084;50.956;3.106;2023-09-19T13:48:07;19.70;99.90
17918;DHT22;9084;50.956;3.106;2023-09-19T13:50:34;19.70;99.90
17918;DHT22;9084;50.956;3.106;2023-09-19T13:53:10;19.80;99.90
17918;DHT22;9084;50.956;3.106;2023-09-19T13:55:35;20.10;99.90
17918;DHT22;9084;50.956;3.106;2023-09-19T13:58:03;20.30;99.90
17918;DHT22;9084;50.956;3.106;2023-09-19T14:00:32;20.40;99.90
17918;DHT22;9084;50.956;3.106;2023-09-19T14:03:00;20.50;98.60
17918;DHT22;9084;50.956;3.106;2023-09-19T14:05:29;20.60;99.10
17918;DHT22;9084;50.956;3.106;2023-09-19T14:07:55;20.50;98.40
17918;DHT22;9084;50.956;3.106;2023-09-19T14:10:23;20.60;99.00
17918;DHT22;9084;50.956;3.106;2023-09-19T14:12:52;20.40;99.00
17918;DHT22;9084;50.956;3.106;2023-09-19T14:15:17;20.30;98.80
17918;DHT22;9084;50.956;3.106;2023-09-19T14:17:55;20.10;99.90
17918;DHT22;9084;50.956;3.106;2023-09-19T14:20:21;20.00;99.90
17918;DHT22;9084;50.956;3.106;2023-09-19T14:22:48;19.90;99.90
17918;DHT22;9084;50.956;3.106;2023-09-19T14:25:13;19.80;99.90
17918;DHT22;9084;50.956;3.106;2023-09-19T14:27:39;19.90;99.90
17918;DHT22;9084;50.956;3.106;2023-09-19T14:30:06;19.90;99.90
17918;DHT22;9084;50.956;3.106;2023-09-19T14:32:32;19.90;99.90
17918;DHT22;9084;50.956;3.106;2023-09-19T14:34:57;19.90;99.90
17918;DHT22;9084;50.956;3.106;2023-09-19T14:37:24;19.80;99.90
17918;DHT22;9084;50.956;3.106;2023-09-19T14:39:49;19.80;99.90
17918;DHT22;9084;50.956;3.106;2023-09-19T14:42:15;19.70;99.90
17918;DHT22;9084;50.956;3.106;2023-09-19T14:44:43;19.70;99.90
17918;DHT22;9084;50.956;3.106;2023-09-19T14:47:09;19.60;99.90
17918;DHT22;9084;50.956;3.106;2023-09-19T14:49:37;19.50;99.90
17918;DHT22;9084;50.956;3.106;2023-09-19T14:52:10;19.50;99.90
17918;DHT22;9084;50.956;3.106;2023-09-19T14:54:36;19.40;99.90
17918;DHT22;9084;50.956;3.106;2023-09-19T14:57:06;19.40;99.90
17918;DHT22;9084;50.956;3.106;2023-09-19T14:59:35;19.40;99.90
17918;DHT22;9084;50.956;3.106;2023-09-19T15:02:04;19.50;99.90
17918;DHT22;9084;50.956;3.106;2023-09-19T15:04:33;19.50;99.90
17918;DHT22;9084;50.956;3.106;2023-09-19T15:06:59;19.50;99.90
17918;DHT22;9084;50.956;3.106;2023-09-19T15:09:27;19.50;99.90
17918;DHT22;9084;50.956;3.106;2023-09-19T15:11:56;19.50;99.90
17918;DHT22;9084;50.956;3.106;2023-09-19T15:14:27;19.50;99.90
17918;DHT22;9084;50.956;3.106;2023-09-19T15:16:55;19.50;99.90
17918;DHT22;9084;50.956;3.106;2023-09-19T15:19:21;19.50;99.90
17918;DHT22;9084;50.956;3.106;2023-09-19T15:21:48;19.40;99.90
17918;DHT22;9084;50.956;3.106;2023-09-19T15:24:13;19.40;99.90
17918;DHT22;9084;50.956;3.106;2023-09-19T15:26:40;19.40;99.90
17918;DHT22;9084;50.956;3.106;2023-09-19T15:29:12;19.40;99.90
17918;DHT22;9084;50.956;3.106;2023-09-19T15:31:38;19.30;99.90
17918;DHT22;9084;50.956;3.106;2023-09-19T15:34:04;19.30;99.90
17918;DHT22;9084;50.956;3.106;2023-09-19T15:36:33;19.30;99.90
17918;DHT22;9084;50.956;3.106;2023-09-19T15:39:08;19.20;99.90
17918;DHT22;9084;50.956;3.106;2023-09-19T15:41:41;19.10;99.90
17918;DHT22;9084;50.956;3.106;2023-09-19T15:44:15;19.00;99.90
17918;DHT22;9084;50.956;3.106;2023-09-19T15:46:41;18.90;99.90
17918;DHT22;9084;50.956;3.106;2023-09-19T15:49:12;18.70;99.90
17918;DHT22;9084;50.956;3.106;2023-09-19T15:51:40;18.50;99.90
17918;DHT22;9084;50.956;3.106;2023-09-19T15:54:13;18.40;99.90
17918;DHT22;9084;50.956;3.106;2023-09-19T15:56:39;18.20;99.90
17918;DHT22;9084;50.956;3.106;2023-09-19T15:59:06;18.20;99.90
17918;DHT22;9084;50.956;3.106;2023-09-19T16:01:32;18.20;99.90
17918;DHT22;9084;50.956;3.106;2023-09-19T16:03:58;18.20;99.90
17918;DHT22;9084;50.956;3.106;2023-09-19T16:06:29;18.20;99.90
17918;DHT22;9084;50.956;3.106;2023-09-19T16:08:59;18.10;99.90
17918;DHT22;9084;50.956;3.106;2023-09-19T16:11:26;18.10;99.90
17918;DHT22;9084;50.956;3.106;2023-09-19T16:13:55;18.00;99.90
17918;DHT22;9084;50.956;3.106;2023-09-19T16:16:25;17.90;99.90
17918;DHT22;9084;50.956;3.106;2023-09-19T16:18:57;17.90;99.90
17918;DHT22;9084;50.956;3.106;2023-09-19T16:21:27;17.80;99.90
17918;DHT22;9084;50.956;3.106;2023-09-19T16:23:55;17.80;99.90
17918;DHT22;9084;50.956;3.106;2023-09-19T16:26:24;17.80;99.90
17918;DHT22;9084;50.956;3.106;2023-09-19T16:28:56;17.80;99.90
17918;DHT22;9084;50.956;3.106;2023-09-19T16:31:29;17.80;99.90
17918;DHT22;9084;50.956;3.106;2023-09-19T16:33:57;17.70;99.90
17918;DHT22;9084;50.956;3.106;2023-09-19T16:36:25;17.70;99.90
17918;DHT22;9084;50.956;3.106;2023-09-19T16:38:51;17.70;99.90
17918;DHT22;9084;50.956;3.106;2023-09-19T16:41:19;17.80;99.90
17918;DHT22;9084;50.956;3.106;2023-09-19T16:43:46;17.80;99.90
17918;DHT22;9084;50.956;3.106;2023-09-19T16:46:12;17.80;99.90
17918;DHT22;9084;50.956;3.106;2023-09-19T16:48:45;17.90;99.90
17918;DHT22;9084;50.956;3.106;2023-09-19T16:51:15;17.80;99.90
17918;DHT22;9084;50.956;3.106;2023-09-19T16:53:41;17.80;99.90
17918;DHT22;9084;50.956;3.106;2023-09-19T16:56:11;17.90;99.90
17918;DHT22;9084;50.956;3.106;2023-09-19T16:58:41;17.90;99.90
17918;DHT22;9084;50.956;3.106;2023-09-19T17:01:08;17.90;99.90
17918;DHT22;9084;50.956;3.106;2023-09-19T17:03:37;18.00;99.90